Time;durP1;ratioP1;P1;durP2;ratioP2;P2;SDS_P1;SDS_P2;PMS_P1;PMS_P2;Temp;Humidity;BMP_temperature;BMP_pressure;BME280_temperature;BME280_humidity;BME280_pressure;Samples;Min_cycle;Max_cycle;Signal;HPM_P1;HPM_P2
2023/12/25 00:01:30;;;;;;;2.40;1.20;;;;;;;;;;5092421;28;20155;-67
2023/12/25 00:03:56;;;;;;;5.95;1.50;;;;;;;;;;5088661;28;20040;-67
2023/12/25 00:06:22;;;;;;;4.05;1.10;;;;;;;;;;5088341;28;20043;-67
2023/12/25 00:08:49;;;;;;;4.63;1.67;;;;;;;;;;5087853;28;20050;-67
2023/12/25 00:11:15;;;;;;;2.28;1.25;;;;;;;;;;5088073;28;20046;-66
2023/12/25 00:13:40;;;;;;;2.10;1.10;;;;;;;;;;5089164;28;20039;-66
2023/12/25 00:16:05;;;;;;;2.65;1.45;;;;;;;;;;5072186;28;20040;-67
2023/12/25 00:18:31;;;;;;;5.22;1.85;;;;;;;;;;5088231;28;20103;-67
2023/12/25 00:20:56;;;;;;;3.42;1.30;;;;;;;;;;5088447;28;20061;-67
2023/12/25 00:23:22;;;;;;;5.18;1.33;;;;;;;;;;5090724;28;20064;-67
2023/12/25 00:25:47;;;;;;;1.58;0.73;;;;;;;;;;5087998;28;20105;-67
2023/12/25 00:28:12;;;;;;;2.17;1.00;;;;;;;;;;5087771;28;20100;-67
2023/12/25 00:30:38;;;;;;;2.30;1.17;;;;;;;;;;5088559;28;20586;-67
2023/12/25 00:33:03;;;;;;;4.53;1.55;;;;;;;;;;5088857;28;20027;-67
2023/12/25 00:35:29;;;;;;;3.08;0.90;;;;;;;;;;5089429;28;20489;-67
2023/12/25 00:37:54;;;;;;;2.10;0.95;;;;;;;;;;5088847;28;20122;-66
2023/12/25 00:40:19;;;;;;;1.60;0.80;;;;;;;;;;5086346;28;20101;-67
2023/12/25 00:42:45;;;;;;;4.03;0.80;;;;;;;;;;5087091;28;20361;-67
2023/12/25 00:45:10;;;;;;;3.13;0.90;;;;;;;;;;5087572;28;20044;-67
2023/12/25 00:47:35;;;;;;;3.63;1.20;;;;;;;;;;5088961;28;20356;-67
2023/12/25 00:50:02;;;;;;;2.63;1.10;;;;;;;;;;5088544;28;20040;-67
2023/12/25 00:52:27;;;;;;;2.70;1.20;;;;;;;;;;5087762;28;20036;-67
2023/12/25 00:54:52;;;;;;;3.13;1.27;;;;;;;;;;5088671;28;20100;-67
2023/12/25 00:57:18;;;;;;;1.73;0.93;;;;;;;;;;5088463;28;20465;-67
2023/12/25 00:59:43;;;;;;;2.40;1.15;;;;;;;;;;5093050;28;20040;-67
2023/12/25 01:02:08;;;;;;;2.60;1.15;;;;;;;;;;5089571;28;20028;-67
2023/12/25 01:04:34;;;;;;;1.77;0.95;;;;;;;;;;5089434;28;20032;-67
2023/12/25 01:06:59;;;;;;;2.85;1.00;;;;;;;;;;5088944;28;20032;-67
2023/12/25 01:09:24;;;;;;;2.00;0.90;;;;;;;;;;5088328;28;20032;-67
2023/12/25 01:11:50;;;;;;;1.80;1.00;;;;;;;;;;5089241;28;20032;-67
2023/12/25 01:14:15;;;;;;;1.83;1.00;;;;;;;;;;5088889;28;20043;-67
2023/12/25 01:16:41;;;;;;;2.90;1.52;;;;;;;;;;5089782;28;20101;-67
2023/12/25 01:19:06;;;;;;;2.65;1.30;;;;;;;;;;5092428;28;20051;-67
2023/12/25 01:21:32;;;;;;;2.13;1.17;;;;;;;;;;5093171;28;20407;-67
2023/12/25 01:23:58;;;;;;;3.50;1.30;;;;;;;;;;5092426;28;20480;-67
2023/12/25 01:26:23;;;;;;;2.63;1.20;;;;;;;;;;5093219;28;20089;-67
2023/12/25 01:28:48;;;;;;;2.00;1.10;;;;;;;;;;5092999;28;20068;-67
2023/12/25 01:31:14;;;;;;;2.90;1.33;;;;;;;;;;5091679;28;20070;-67
2023/12/25 01:33:39;;;;;;;3.33;1.48;;;;;;;;;;5092676;28;20036;-67
2023/12/25 01:36:05;;;;;;;2.60;1.20;;;;;;;;;;5093373;28;20044;-67
2023/12/25 01:38:30;;;;;;;2.47;1.05;;;;;;;;;;5092425;28;20059;-67
2023/12/25 01:40:56;;;;;;;3.50;1.10;;;;;;;;;;5093127;28;20121;-67
2023/12/25 01:43:21;;;;;;;2.92;1.40;;;;;;;;;;5092309;28;20131;-67
2023/12/25 01:45:46;;;;;;;2.55;1.25;;;;;;;;;;5097395;28;20105;-67
2023/12/25 01:48:12;;;;;;;2.30;1.05;;;;;;;;;;5095131;28;20055;-67
2023/12/25 01:50:38;;;;;;;2.28;1.00;;;;;;;;;;5077234;28;20043;-67
2023/12/25 01:53:04;;;;;;;2.40;1.15;;;;;;;;;;5080373;28;20507;-67
2023/12/25 01:55:30;;;;;;;2.03;0.85;;;;;;;;;;5074217;28;20043;-67
2023/12/25 01:57:55;;;;;;;3.33;1.02;;;;;;;;;;5096894;28;20032;-67
2023/12/25 02:00:20;;;;;;;4.13;0.90;;;;;;;;;;5092018;28;20035;-66
2023/12/25 02:02:46;;;;;;;3.75;1.00;;;;;;;;;;5092551;28;20044;-67
2023/12/25 02:05:11;;;;;;;2.75;1.00;;;;;;;;;;5095447;28;20066;-67
2023/12/25 02:07:40;;;;;;;1.33;0.93;;;;;;;;;;5073680;28;20490;-66
2023/12/25 02:10:09;;;;;;;3.13;1.02;;;;;;;;;;5096984;28;20040;-67
2023/12/25 02:12:35;;;;;;;0.90;0.60;;;;;;;;;;5091879;28;20540;-67
2023/12/25 02:15:01;;;;;;;3.30;0.88;;;;;;;;;;5092393;28;20072;-67
2023/12/25 02:17:27;;;;;;;1.52;0.90;;;;;;;;;;5091367;28;20043;-67
2023/12/25 02:19:52;;;;;;;1.70;0.77;;;;;;;;;;5073949;28;20047;-67
2023/12/25 02:22:18;;;;;;;3.63;0.88;;;;;;;;;;5089359;28;20483;-66
2023/12/25 02:24:53;;;;;;;2.90;0.98;;;;;;;;;;5075538;28;20040;-66
2023/12/25 02:27:18;;;;;;;2.38;0.90;;;;;;;;;;5084987;28;20047;-67
2023/12/25 02:29:43;;;;;;;2.10;0.80;;;;;;;;;;5074320;28;20044;-67
2023/12/25 02:32:09;;;;;;;2.75;1.25;;;;;;;;;;5091398;28;20143;-67
2023/12/25 02:34:34;;;;;;;2.25;1.00;;;;;;;;;;5091738;28;20040;-67
2023/12/25 02:36:59;;;;;;;2.17;0.90;;;;;;;;;;5091594;28;20032;-66
2023/12/25 02:39:25;;;;;;;2.05;0.85;;;;;;;;;;5091235;28;20054;-66
2023/12/25 02:41:50;;;;;;;1.50;0.90;;;;;;;;;;5092139;28;20102;-66
2023/12/25 02:44:16;;;;;;;5.00;1.10;;;;;;;;;;5091366;28;20057;-67
2023/12/25 02:46:41;;;;;;;2.35;1.20;;;;;;;;;;5091713;28;20040;-67
2023/12/25 02:49:07;;;;;;;1.83;0.82;;;;;;;;;;5073081;28;20031;-66
2023/12/25 02:51:33;;;;;;;2.35;1.05;;;;;;;;;;5088479;28;20035;-67
2023/12/25 02:53:58;;;;;;;1.70;0.82;;;;;;;;;;5090785;28;20548;-67
2023/12/25 02:56:23;;;;;;;1.80;1.00;;;;;;;;;;5091804;28;20024;-66
2023/12/25 02:58:49;;;;;;;2.28;1.10;;;;;;;;;;5088351;28;20093;-67
2023/12/25 03:01:14;;;;;;;2.42;0.98;;;;;;;;;;5091111;28;20035;-67
2023/12/25 03:03:39;;;;;;;1.77;0.85;;;;;;;;;;5090624;28;20085;-66
2023/12/25 03:06:05;;;;;;;2.60;1.20;;;;;;;;;;5090877;28;20039;-66
2023/12/25 03:08:30;;;;;;;3.30;1.00;;;;;;;;;;5090771;28;20039;-66
2023/12/25 03:10:56;;;;;;;2.40;0.95;;;;;;;;;;5091490;28;20490;-66
2023/12/25 03:13:21;;;;;;;1.65;0.80;;;;;;;;;;5072667;28;20040;-67
2023/12/25 03:15:46;;;;;;;1.42;0.80;;;;;;;;;;5091441;28;20425;-66
2023/12/25 03:18:12;;;;;;;3.40;0.70;;;;;;;;;;5091081;28;20426;-67
2023/12/25 03:20:37;;;;;;;2.40;0.80;;;;;;;;;;5091063;28;20519;-67
2023/12/25 03:23:02;;;;;;;1.15;0.65;;;;;;;;;;5090354;28;20111;-67
2023/12/25 03:25:28;;;;;;;1.73;0.82;;;;;;;;;;5072786;28;20123;-67
2023/12/25 03:27:53;;;;;;;3.65;1.17;;;;;;;;;;5090611;28;20036;-66
2023/12/25 03:30:18;;;;;;;1.85;0.60;;;;;;;;;;5091208;28;20043;-66
2023/12/25 03:32:44;;;;;;;1.70;0.70;;;;;;;;;;5090041;28;20032;-66
2023/12/25 03:35:09;;;;;;;1.40;0.75;;;;;;;;;;5090942;28;20035;-67
2023/12/25 03:37:34;;;;;;;0.93;0.60;;;;;;;;;;5090319;28;20040;-67
2023/12/25 03:40:00;;;;;;;0.60;0.40;;;;;;;;;;5090533;28;20101;-67
2023/12/25 03:42:25;;;;;;;0.70;0.50;;;;;;;;;;5090235;28;20127;-66
2023/12/25 03:44:50;;;;;;;1.42;0.70;;;;;;;;;;5090119;28;20100;-67
2023/12/25 03:47:16;;;;;;;2.80;0.75;;;;;;;;;;5090141;28;20111;-67
2023/12/25 03:49:41;;;;;;;1.55;0.68;;;;;;;;;;5090303;28;20174;-67
2023/12/25 03:52:06;;;;;;;1.40;0.68;;;;;;;;;;5090197;28;20046;-67
2023/12/25 03:54:32;;;;;;;1.42;0.60;;;;;;;;;;5089952;28;20036;-66
2023/12/25 03:56:57;;;;;;;1.40;0.63;;;;;;;;;;5072692;28;20040;-66
2023/12/25 03:59:22;;;;;;;1.13;0.55;;;;;;;;;;5089673;28;20039;-67
2023/12/25 04:01:48;;;;;;;1.58;0.70;;;;;;;;;;5075025;28;20557;-67
2023/12/25 04:04:13;;;;;;;0.68;0.50;;;;;;;;;;5070850;28;20040;-67
2023/12/25 04:06:38;;;;;;;1.52;0.70;;;;;;;;;;5090332;28;20047;-66
2023/12/25 04:09:04;;;;;;;2.03;0.77;;;;;;;;;;5089172;28;20020;-67
2023/12/25 04:11:30;;;;;;;1.17;0.70;;;;;;;;;;5090552;28;20043;-66
2023/12/25 04:13:55;;;;;;;0.80;0.60;;;;;;;;;;5089751;28;20032;-67
2023/12/25 04:16:24;;;;;;;1.70;0.90;;;;;;;;;;5072009;28;20028;-66
2023/12/25 04:18:52;;;;;;;1.70;0.70;;;;;;;;;;5071608;28;20051;-67
2023/12/25 04:21:24;;;;;;;1.88;0.88;;;;;;;;;;5088152;28;20040;-66
2023/12/25 04:23:51;;;;;;;1.65;0.82;;;;;;;;;;5089115;28;20526;-67
2023/12/25 04:26:16;;;;;;;1.63;0.88;;;;;;;;;;5090199;28;20124;-67
2023/12/25 04:28:42;;;;;;;1.58;0.80;;;;;;;;;;5071772;28;20110;-66
2023/12/25 04:31:08;;;;;;;2.20;0.90;;;;;;;;;;5090202;28;20044;-67
2023/12/25 04:33:33;;;;;;;2.13;0.90;;;;;;;;;;5089564;28;20089;-66
2023/12/25 04:35:58;;;;;;;1.85;0.90;;;;;;;;;;5090001;28;20112;-67
2023/12/25 04:38:24;;;;;;;4.05;0.75;;;;;;;;;;5089458;28;20085;-66
2023/12/25 04:40:52;;;;;;;0.98;0.55;;;;;;;;;;5090162;28;20119;-66
2023/12/25 04:43:17;;;;;;;0.90;0.60;;;;;;;;;;5087643;28;20387;-67
2023/12/25 04:45:43;;;;;;;1.85;0.60;;;;;;;;;;5089994;28;20048;-67
2023/12/25 04:48:08;;;;;;;0.88;0.70;;;;;;;;;;5089962;28;20410;-67
2023/12/25 04:50:33;;;;;;;1.25;0.60;;;;;;;;;;5089413;28;20494;-66
2023/12/25 04:52:59;;;;;;;1.73;0.63;;;;;;;;;;5089205;28;20035;-66
2023/12/25 04:55:28;;;;;;;1.67;0.75;;;;;;;;;;5093781;28;20036;-67
2023/12/25 04:57:53;;;;;;;1.20;0.70;;;;;;;;;;5093336;28;20471;-67
2023/12/25 05:00:18;;;;;;;2.45;0.70;;;;;;;;;;5093710;28;20035;-67
2023/12/25 05:02:44;;;;;;;2.70;0.90;;;;;;;;;;5093211;28;20036;-66
2023/12/25 05:05:09;;;;;;;2.78;1.05;;;;;;;;;;5087449;28;20697;-66
2023/12/25 05:07:34;;;;;;;2.15;0.90;;;;;;;;;;5091889;28;20031;-67
2023/12/25 05:10:00;;;;;;;4.40;1.10;;;;;;;;;;5092819;28;20040;-67
2023/12/25 05:12:25;;;;;;;2.72;1.20;;;;;;;;;;5093111;28;20042;-66
2023/12/25 05:14:50;;;;;;;2.55;0.82;;;;;;;;;;5092788;28;20383;-67
2023/12/25 05:17:17;;;;;;;3.13;0.85;;;;;;;;;;5092833;28;20433;-67
2023/12/25 05:19:42;;;;;;;4.60;0.80;;;;;;;;;;5093151;28;20057;-66
2023/12/25 05:22:08;;;;;;;3.05;0.95;;;;;;;;;;5074800;28;20048;-67
2023/12/25 05:24:33;;;;;;;2.28;0.88;;;;;;;;;;5092719;28;20510;-66
2023/12/25 05:26:58;;;;;;;5.22;1.10;;;;;;;;;;5093395;28;20036;-66
2023/12/25 05:29:24;;;;;;;9.98;1.75;;;;;;;;;;5082907;28;20028;-66
2023/12/25 05:31:49;;;;;;;3.13;0.90;;;;;;;;;;5093476;28;20043;-66
2023/12/25 05:34:15;;;;;;;4.63;0.85;;;;;;;;;;5092635;28;20024;-67
2023/12/25 05:36:40;;;;;;;4.32;0.75;;;;;;;;;;5092788;28;20131;-66
2023/12/25 05:39:06;;;;;;;4.43;1.05;;;;;;;;;;5092731;28;20040;-67
2023/12/25 05:41:31;;;;;;;3.10;0.68;;;;;;;;;;5075321;28;20035;-66
2023/12/25 05:43:57;;;;;;;3.53;0.70;;;;;;;;;;5091216;28;20044;-67
2023/12/25 05:46:22;;;;;;;5.47;1.00;;;;;;;;;;5076882;28;20055;-67
2023/12/25 05:48:47;;;;;;;4.22;1.00;;;;;;;;;;5090941;28;20036;-67
2023/12/25 05:51:13;;;;;;;8.77;1.10;;;;;;;;;;5091034;28;20122;-66
2023/12/25 05:53:38;;;;;;;3.60;1.20;;;;;;;;;;5091214;28;20101;-67
2023/12/25 05:56:04;;;;;;;4.47;0.85;;;;;;;;;;5091435;28;20024;-66
2023/12/25 05:58:29;;;;;;;3.55;0.82;;;;;;;;;;5091047;28;20104;-66
2023/12/25 06:00:55;;;;;;;5.03;1.05;;;;;;;;;;5091425;28;20490;-66
2023/12/25 06:03:20;;;;;;;3.83;1.05;;;;;;;;;;5090621;28;20128;-66
2023/12/25 06:05:45;;;;;;;7.40;1.27;;;;;;;;;;5091422;28;20032;-66
2023/12/25 06:08:11;;;;;;;6.47;1.48;;;;;;;;;;5091003;28;20395;-66
2023/12/25 06:10:36;;;;;;;5.72;1.40;;;;;;;;;;5090901;28;20036;-66
2023/12/25 06:13:02;;;;;;;8.82;1.40;;;;;;;;;;5090613;28;20085;-66
2023/12/25 06:15:28;;;;;;;4.55;0.95;;;;;;;;;;5091465;28;20043;-66
2023/12/25 06:17:53;;;;;;;4.57;0.90;;;;;;;;;;5090980;28;20024;-67
2023/12/25 06:20:18;;;;;;;4.25;1.27;;;;;;;;;;5091018;28;20028;-66
2023/12/25 06:22:43;;;;;;;6.80;0.95;;;;;;;;;;5091224;28;20073;-66
2023/12/25 06:25:09;;;;;;;7.00;1.40;;;;;;;;;;5091450;28;20090;-66
2023/12/25 06:27:34;;;;;;;6.50;1.00;;;;;;;;;;5090273;28;20032;-66
2023/12/25 06:30:00;;;;;;;5.93;1.40;;;;;;;;;;5090843;28;20044;-66
2023/12/25 06:32:25;;;;;;;6.82;1.20;;;;;;;;;;5090784;28;20063;-66
2023/12/25 06:34:50;;;;;;;6.25;0.93;;;;;;;;;;5091149;28;20475;-66
2023/12/25 06:37:16;;;;;;;6.00;1.20;;;;;;;;;;5090545;28;20425;-66
2023/12/25 06:39:41;;;;;;;7.20;1.20;;;;;;;;;;5090885;28;20043;-67
2023/12/25 06:42:06;;;;;;;8.88;1.40;;;;;;;;;;5090496;28;20043;-66
2023/12/25 06:44:32;;;;;;;7.20;1.00;;;;;;;;;;5050301;28;1153509;-66
2023/12/25 06:46:57;;;;;;;5.45;1.40;;;;;;;;;;5091926;28;20086;-66
2023/12/25 06:49:22;;;;;;;5.13;1.23;;;;;;;;;;5090988;28;20036;-66
2023/12/25 06:51:48;;;;;;;7.30;1.13;;;;;;;;;;5091092;28;20063;-66
2023/12/25 06:54:13;;;;;;;6.55;1.17;;;;;;;;;;5091238;28;20156;-66
2023/12/25 06:56:38;;;;;;;5.93;1.20;;;;;;;;;;5091807;28;20040;-66
2023/12/25 06:59:04;;;;;;;6.45;1.40;;;;;;;;;;5091083;28;20468;-67
2023/12/25 07:01:30;;;;;;;7.07;1.00;;;;;;;;;;5091517;28;20710;-67
2023/12/25 07:03:55;;;;;;;9.93;1.45;;;;;;;;;;5070129;28;20032;-67
2023/12/25 07:06:20;;;;;;;4.85;1.00;;;;;;;;;;5079708;28;20380;-66
2023/12/25 07:08:45;;;;;;;9.38;1.27;;;;;;;;;;5090643;28;20047;-67
2023/12/25 07:11:11;;;;;;;5.75;1.25;;;;;;;;;;5091134;28;20032;-66
2023/12/25 07:13:37;;;;;;;6.63;1.80;;;;;;;;;;5090779;28;20032;-66
2023/12/25 07:16:05;;;;;;;5.18;1.42;;;;;;;;;;5072442;28;20484;-66
2023/12/25 07:18:31;;;;;;;7.05;1.42;;;;;;;;;;5082845;28;20031;-66
2023/12/25 07:20:56;;;;;;;12.50;2.38;;;;;;;;;;5090858;28;20486;-67
2023/12/25 07:23:21;;;;;;;11.02;2.00;;;;;;;;;;5090713;28;20455;-66
2023/12/25 07:25:47;;;;;;;9.95;2.38;;;;;;;;;;5090758;28;20439;-66
2023/12/25 07:28:13;;;;;;;7.72;2.28;;;;;;;;;;5090264;28;20530;-66
2023/12/25 07:30:38;;;;;;;21.10;6.07;;;;;;;;;;5090996;28;20078;-66
2023/12/25 07:33:04;;;;;;;41.28;20.67;;;;;;;;;;5090603;28;20047;-67
2023/12/25 07:35:29;;;;;;;32.67;16.95;;;;;;;;;;5090573;28;20072;-66
2023/12/25 07:37:54;;;;;;;22.25;5.97;;;;;;;;;;5090296;28;20119;-67
2023/12/25 07:40:20;;;;;;;18.05;7.63;;;;;;;;;;5090914;28;20123;-66
2023/12/25 07:42:45;;;;;;;21.38;10.85;;;;;;;;;;5090450;28;20063;-67
2023/12/25 07:45:12;;;;;;;21.48;8.15;;;;;;;;;;5090733;28;20094;-66
2023/12/25 07:47:37;;;;;;;10.80;2.58;;;;;;;;;;5090245;28;20480;-66
2023/12/25 07:50:04;;;;;;;14.20;2.95;;;;;;;;;;5090200;28;20023;-66
2023/12/25 07:52:30;;;;;;;15.18;6.03;;;;;;;;;;5072310;28;20750;-67
2023/12/25 07:54:56;;;;;;;14.23;2.92;;;;;;;;;;5090412;28;20052;-66
2023/12/25 07:57:21;;;;;;;16.40;3.78;;;;;;;;;;5090069;28;20062;-66
2023/12/25 07:59:48;;;;;;;23.33;4.32;;;;;;;;;;5090138;28;20048;-66
2023/12/25 08:02:14;;;;;;;9.75;3.13;;;;;;;;;;5090058;28;20565;-67
2023/12/25 08:04:40;;;;;;;15.23;3.88;;;;;;;;;;5089681;28;20070;-66
2023/12/25 08:07:05;;;;;;;10.65;2.92;;;;;;;;;;5090183;28;20643;-66
2023/12/25 08:09:31;;;;;;;15.40;3.47;;;;;;;;;;5090136;28;20036;-67
2023/12/25 08:11:56;;;;;;;14.45;3.40;;;;;;;;;;5089893;28;20024;-66
2023/12/25 08:14:21;;;;;;;10.07;2.22;;;;;;;;;;5071858;28;20108;-67
2023/12/25 08:16:47;;;;;;;10.40;3.53;;;;;;;;;;5052205;28;20487;-67
2023/12/25 08:19:12;;;;;;;14.15;3.15;;;;;;;;;;5089426;28;20032;-67
2023/12/25 08:21:37;;;;;;;13.45;2.30;;;;;;;;;;5090023;28;20040;-67
2023/12/25 08:24:03;;;;;;;12.48;2.90;;;;;;;;;;5088756;28;20040;-66
2023/12/25 08:26:28;;;;;;;13.85;3.45;;;;;;;;;;5089916;28;20454;-65
2023/12/25 08:28:54;;;;;;;11.32;1.60;;;;;;;;;;5089367;28;20043;-66
2023/12/25 08:31:19;;;;;;;13.63;2.47;;;;;;;;;;5089602;28;20036;-66
2023/12/25 08:33:45;;;;;;;9.10;2.55;;;;;;;;;;5089292;28;20032;-67
2023/12/25 08:36:10;;;;;;;11.95;2.00;;;;;;;;;;5089530;28;20404;-66
2023/12/25 08:38:35;;;;;;;8.95;2.03;;;;;;;;;;5089685;28;20044;-66
2023/12/25 08:41:02;;;;;;;12.68;2.13;;;;;;;;;;5088698;28;20081;-66
2023/12/25 08:43:28;;;;;;;11.93;3.45;;;;;;;;;;5089704;28;20065;-66
2023/12/25 08:45:53;;;;;;;17.05;2.83;;;;;;;;;;5089289;28;20586;-66
2023/12/25 08:48:18;;;;;;;11.00;2.25;;;;;;;;;;5086468;28;20036;-66
2023/12/25 08:50:44;;;;;;;12.05;2.03;;;;;;;;;;5088729;28;20054;-66
2023/12/25 08:53:09;;;;;;;15.32;3.45;;;;;;;;;;5089260;28;20036;-67
2023/12/25 08:55:35;;;;;;;11.30;3.47;;;;;;;;;;5088790;28;20051;-66
2023/12/25 08:58:00;;;;;;;10.95;2.47;;;;;;;;;;5088711;28;20028;-66
2023/12/25 09:00:25;;;;;;;10.82;3.53;;;;;;;;;;5088660;28;20032;-67
2023/12/25 09:02:51;;;;;;;27.60;6.45;;;;;;;;;;5087907;28;20498;-67
2023/12/25 09:05:16;;;;;;;19.67;5.35;;;;;;;;;;5088243;28;20538;-67
2023/12/25 09:07:42;;;;;;;23.35;4.50;;;;;;;;;;5088129;28;20028;-67
2023/12/25 09:10:07;;;;;;;15.95;3.30;;;;;;;;;;5088355;28;20093;-67
2023/12/25 09:12:33;;;;;;;23.38;8.05;;;;;;;;;;5087216;28;20064;-66
2023/12/25 09:14:58;;;;;;;11.23;2.92;;;;;;;;;;5081028;28;20046;-67
2023/12/25 09:17:24;;;;;;;15.93;4.13;;;;;;;;;;5086324;28;20410;-67
2023/12/25 09:19:49;;;;;;;14.27;6.10;;;;;;;;;;5088623;28;20497;-66
2023/12/25 09:22:14;;;;;;;19.65;5.68;;;;;;;;;;5087778;28;20595;-66
2023/12/25 09:24:44;;;;;;;24.27;7.28;;;;;;;;;;5087656;28;20462;-67
2023/12/25 09:27:09;;;;;;;17.05;5.53;;;;;;;;;;5070408;28;20484;-67
2023/12/25 09:29:35;;;;;;;15.38;3.50;;;;;;;;;;5087402;28;20051;-66
2023/12/25 09:32:00;;;;;;;17.30;4.90;;;;;;;;;;5086301;28;20024;-67
2023/12/25 09:34:26;;;;;;;12.15;3.88;;;;;;;;;;5070399;28;20077;-67
2023/12/25 09:36:55;;;;;;;29.95;6.85;;;;;;;;;;5087413;28;20047;-66
2023/12/25 09:39:20;;;;;;;21.15;6.07;;;;;;;;;;5090905;28;20081;-67
2023/12/25 09:41:46;;;;;;;17.83;4.88;;;;;;;;;;5090920;28;20043;-66
2023/12/25 09:44:11;;;;;;;13.48;4.63;;;;;;;;;;5092255;28;20047;-66
2023/12/25 09:46:37;;;;;;;11.40;3.40;;;;;;;;;;5075165;28;20032;-66
2023/12/25 09:49:03;;;;;;;7.88;2.42;;;;;;;;;;5073325;28;20036;-66
2023/12/25 09:51:32;;;;;;;8.82;2.97;;;;;;;;;;5090247;28;20047;-66
2023/12/25 09:53:58;;;;;;;19.95;3.15;;;;;;;;;;5091939;28;20036;-67
2023/12/25 09:56:23;;;;;;;8.63;2.70;;;;;;;;;;5092353;28;20708;-67
2023/12/25 09:58:49;;;;;;;9.57;2.70;;;;;;;;;;5073762;28;20523;-67
2023/12/25 10:01:15;;;;;;;13.73;4.20;;;;;;;;;;5091012;28;20040;-67
2023/12/25 10:03:44;;;;;;;18.70;4.15;;;;;;;;;;5076024;28;20048;-67
2023/12/25 10:06:10;;;;;;;15.40;3.08;;;;;;;;;;5091159;28;20028;-67
2023/12/25 10:08:36;;;;;;;12.05;3.05;;;;;;;;;;5073208;28;20039;-67
2023/12/25 10:11:02;;;;;;;10.55;2.63;;;;;;;;;;5092278;28;20047;-67
2023/12/25 10:13:28;;;;;;;9.98;2.10;;;;;;;;;;5090612;28;20379;-66
2023/12/25 10:15:54;;;;;;;15.68;3.65;;;;;;;;;;5091560;28;20063;-67
2023/12/25 10:18:22;;;;;;;8.70;2.58;;;;;;;;;;5091625;28;20132;-67
2023/12/25 10:20:57;;;;;;;13.60;2.60;;;;;;;;;;5081778;28;20092;-67
2023/12/25 10:23:29;;;;;;;7.57;2.25;;;;;;;;;;5090649;28;20096;-67
2023/12/25 10:25:59;;;;;;;9.85;2.10;;;;;;;;;;5067948;28;20035;-67
2023/12/25 10:28:42;;;;;;;13.95;3.22;;;;;;;;;;5088233;28;20028;-66
2023/12/25 10:31:08;;;;;;;14.35;2.58;;;;;;;;;;5087589;28;20039;-66
2023/12/25 10:33:35;;;;;;;12.13;2.30;;;;;;;;;;5069912;28;20032;-67
2023/12/25 10:36:03;;;;;;;8.50;2.00;;;;;;;;;;5087911;28;20028;-67
2023/12/25 10:38:31;;;;;;;11.20;1.85;;;;;;;;;;5086701;28;20032;-66
2023/12/25 10:40:56;;;;;;;9.65;2.55;;;;;;;;;;5068278;28;20049;-66
2023/12/25 10:43:23;;;;;;;9.43;3.00;;;;;;;;;;5086470;28;20120;-67
2023/12/25 10:45:52;;;;;;;11.63;2.45;;;;;;;;;;5087534;28;20047;-67
2023/12/25 10:48:19;;;;;;;14.40;2.97;;;;;;;;;;5085152;28;20044;-66
2023/12/25 10:50:44;;;;;;;12.00;2.67;;;;;;;;;;5071643;28;20066;-66
2023/12/25 10:53:10;;;;;;;16.20;2.70;;;;;;;;;;5075995;28;20063;-67
2023/12/25 10:55:44;;;;;;;16.08;2.65;;;;;;;;;;5088528;28;20129;-67
2023/12/25 10:58:13;;;;;;;13.10;3.40;;;;;;;;;;5090583;28;20506;-67
2023/12/25 11:00:53;;;;;;;7.82;2.20;;;;;;;;;;5075969;28;20111;-67
2023/12/25 11:03:19;;;;;;;11.93;2.40;;;;;;;;;;5084439;28;20047;-66
2023/12/25 11:05:44;;;;;;;13.00;3.08;;;;;;;;;;5090775;28;20036;-67
2023/12/25 11:08:13;;;;;;;14.20;2.35;;;;;;;;;;5089614;28;20044;-66
2023/12/25 11:10:39;;;;;;;11.40;2.13;;;;;;;;;;5089862;28;20063;-67
2023/12/25 11:13:06;;;;;;;15.75;3.47;;;;;;;;;;5074946;28;20059;-67
2023/12/25 11:15:32;;;;;;;13.77;3.08;;;;;;;;;;5088999;28;20035;-67
2023/12/25 11:17:58;;;;;;;13.23;2.42;;;;;;;;;;5090412;28;20032;-66
2023/12/25 11:20:23;;;;;;;7.32;2.03;;;;;;;;;;5076718;28;20044;-66
2023/12/25 11:22:49;;;;;;;10.15;2.35;;;;;;;;;;5090199;28;20499;-66
2023/12/25 11:25:16;;;;;;;13.70;2.47;;;;;;;;;;5090943;28;20036;-66
2023/12/25 11:27:51;;;;;;;14.48;3.42;;;;;;;;;;5089769;28;20686;-66
2023/12/25 11:30:18;;;;;;;12.93;2.72;;;;;;;;;;5090309;28;20107;-67
2023/12/25 11:32:49;;;;;;;14.23;3.33;;;;;;;;;;5089214;28;20479;-67
2023/12/25 11:35:28;;;;;;;11.63;3.28;;;;;;;;;;5089206;28;20067;-66
2023/12/25 11:38:23;;;;;;;11.85;1.88;;;;;;;;;;5088669;28;20060;-67
2023/12/25 11:40:50;;;;;;;8.13;2.60;;;;;;;;;;5087432;28;20035;-67
2023/12/25 11:43:19;;;;;;;11.13;1.75;;;;;;;;;;5070899;28;20043;-67
2023/12/25 11:45:52;;;;;;;11.27;1.58;;;;;;;;;;5089671;28;20487;-67
2023/12/25 11:48:17;;;;;;;6.88;1.52;;;;;;;;;;5070593;28;20092;-67
2023/12/25 11:50:44;;;;;;;8.15;1.58;;;;;;;;;;5087154;28;20032;-66
2023/12/25 11:53:09;;;;;;;5.35;1.48;;;;;;;;;;5087858;28;20163;-67
2023/12/25 11:55:35;;;;;;;8.00;2.03;;;;;;;;;;5089855;28;20455;-67
2023/12/25 11:58:01;;;;;;;7.57;2.38;;;;;;;;;;5089726;28;20135;-67
2023/12/25 12:00:27;;;;;;;8.43;2.17;;;;;;;;;;5071357;28;20036;-67
2023/12/25 12:02:52;;;;;;;7.97;1.63;;;;;;;;;;5072348;28;20044;-67
2023/12/25 12:05:19;;;;;;;5.53;1.77;;;;;;;;;;5090654;28;20044;-67
2023/12/25 12:07:45;;;;;;;10.93;1.77;;;;;;;;;;5090729;28;20039;-67
2023/12/25 12:10:11;;;;;;;10.60;1.75;;;;;;;;;;5090666;28;20031;-67
2023/12/25 12:12:37;;;;;;;5.63;1.42;;;;;;;;;;5088204;28;20130;-67
2023/12/25 12:15:04;;;;;;;4.45;1.40;;;;;;;;;;5090047;28;20188;-67
2023/12/25 12:17:29;;;;;;;5.03;1.27;;;;;;;;;;5072514;28;20032;-68
2023/12/25 12:19:55;;;;;;;10.40;2.33;;;;;;;;;;5090840;28;20050;-66
2023/12/25 12:22:20;;;;;;;5.82;1.13;;;;;;;;;;5090565;28;20042;-67
2023/12/25 12:24:46;;;;;;;6.85;1.85;;;;;;;;;;5072440;28;20028;-67
2023/12/25 12:27:11;;;;;;;6.00;1.40;;;;;;;;;;5090652;28;20424;-67
2023/12/25 12:29:40;;;;;;;7.72;1.40;;;;;;;;;;5090574;28;20036;-67
2023/12/25 12:32:06;;;;;;;8.93;1.73;;;;;;;;;;5090426;28;20032;-67
2023/12/25 12:34:31;;;;;;;8.93;1.50;;;;;;;;;;5089614;28;20051;-66
2023/12/25 12:37:03;;;;;;;8.10;1.50;;;;;;;;;;5090503;28;20028;-67
2023/12/25 12:39:29;;;;;;;7.93;1.45;;;;;;;;;;5068964;28;20388;-66
2023/12/25 12:41:54;;;;;;;7.93;1.70;;;;;;;;;;5085413;28;20543;-66
2023/12/25 12:44:20;;;;;;;4.65;1.38;;;;;;;;;;5088000;28;20127;-67
2023/12/25 12:46:45;;;;;;;5.88;1.85;;;;;;;;;;5076134;28;20578;-66
2023/12/25 12:49:10;;;;;;;7.68;1.60;;;;;;;;;;5089095;28;20044;-67
2023/12/25 12:51:36;;;;;;;6.03;1.15;;;;;;;;;;5089098;28;20070;-67
2023/12/25 12:54:02;;;;;;;5.55;1.50;;;;;;;;;;5084881;28;20024;-67
2023/12/25 12:56:30;;;;;;;7.82;1.40;;;;;;;;;;5089133;28;20039;-67
2023/12/25 12:58:56;;;;;;;8.57;1.42;;;;;;;;;;5089672;28;20032;-67
2023/12/25 13:01:23;;;;;;;4.75;1.30;;;;;;;;;;5085286;28;20028;-66
2023/12/25 13:03:49;;;;;;;3.60;1.10;;;;;;;;;;5088294;28;20040;-67
2023/12/25 13:06:14;;;;;;;5.97;1.27;;;;;;;;;;5071854;28;20093;-66
2023/12/25 13:08:39;;;;;;;3.53;0.98;;;;;;;;;;5070369;28;20028;-66
2023/12/25 13:11:05;;;;;;;3.88;1.40;;;;;;;;;;5085155;28;20043;-67
2023/12/25 13:13:30;;;;;;;3.92;1.13;;;;;;;;;;5087605;28;20034;-67
2023/12/25 13:15:57;;;;;;;4.90;1.30;;;;;;;;;;5076133;28;20056;-67
2023/12/25 13:18:22;;;;;;;6.78;1.52;;;;;;;;;;5075087;28;20036;-67
2023/12/25 13:20:48;;;;;;;5.65;1.38;;;;;;;;;;5088102;28;20041;-67
2023/12/25 13:23:13;;;;;;;5.28;1.33;;;;;;;;;;5098014;28;20119;-66
2023/12/25 13:25:39;;;;;;;4.72;1.27;;;;;;;;;;5094697;28;20119;-66
2023/12/25 13:28:04;;;;;;;4.18;1.10;;;;;;;;;;5091919;28;20040;-67
2023/12/25 13:30:30;;;;;;;13.75;5.35;;;;;;;;;;5092558;28;20043;-67
2023/12/25 13:32:55;;;;;;;25.05;9.90;;;;;;;;;;5092055;28;20047;-67
2023/12/25 13:35:21;;;;;;;6.95;1.33;;;;;;;;;;5092715;28;20039;-66
2023/12/25 13:37:46;;;;;;;3.20;0.80;;;;;;;;;;5091464;28;20046;-67
2023/12/25 13:40:12;;;;;;;3.88;1.80;;;;;;;;;;5086908;28;20036;-67
2023/12/25 13:42:38;;;;;;;4.03;1.58;;;;;;;;;;5088484;28;20483;-66
2023/12/25 13:45:04;;;;;;;4.20;1.30;;;;;;;;;;5071383;28;20045;-67
2023/12/25 13:47:29;;;;;;;4.05;1.00;;;;;;;;;;5069287;28;20040;-67
2023/12/25 13:49:56;;;;;;;5.07;1.15;;;;;;;;;;5072229;28;20033;-67
2023/12/25 13:52:22;;;;;;;4.38;1.13;;;;;;;;;;5071401;28;20051;-66
2023/12/25 13:54:48;;;;;;;3.17;1.10;;;;;;;;;;5071264;28;20040;-67
2023/12/25 13:57:13;;;;;;;4.43;1.30;;;;;;;;;;5071906;28;20032;-67
2023/12/25 13:59:38;;;;;;;3.45;0.98;;;;;;;;;;5071583;28;20046;-67
2023/12/25 14:02:07;;;;;;;3.70;1.25;;;;;;;;;;5071504;28;20123;-66
2023/12/25 14:04:34;;;;;;;6.60;1.25;;;;;;;;;;5072042;28;20078;-67
2023/12/25 14:06:59;;;;;;;6.70;1.58;;;;;;;;;;5071547;28;20025;-66
2023/12/25 14:09:25;;;;;;;4.15;1.83;;;;;;;;;;5073793;28;20107;-66
2023/12/25 14:11:51;;;;;;;8.48;2.65;;;;;;;;;;5071371;28;20036;-66
2023/12/25 14:14:16;;;;;;;11.27;4.82;;;;;;;;;;5070859;28;20056;-66
2023/12/25 14:16:41;;;;;;;8.98;3.38;;;;;;;;;;5069642;28;20577;-67
2023/12/25 14:19:08;;;;;;;4.30;1.30;;;;;;;;;;5070533;28;20029;-66
2023/12/25 14:21:33;;;;;;;3.65;1.20;;;;;;;;;;5072022;28;20036;-67
2023/12/25 14:23:59;;;;;;;5.53;1.40;;;;;;;;;;5072849;28;20128;-67
2023/12/25 14:26:24;;;;;;;7.85;2.97;;;;;;;;;;5074321;28;20068;-66
2023/12/25 14:28:50;;;;;;;4.57;1.73;;;;;;;;;;5068239;28;20035;-67
2023/12/25 14:31:15;;;;;;;7.68;2.40;;;;;;;;;;5049545;28;20424;-67